createdAt,value
2017-01-30T00:00:57.625Z,1011.7
2017-01-30T00:03:30.000Z,1011.7
2017-01-30T00:06:02.841Z,1011.7
2017-01-30T00:08:35.241Z,1011.7
2017-01-30T00:11:07.623Z,1011.6
2017-01-30T00:13:40.052Z,1011.6
2017-01-30T00:16:12.875Z,1011.6
2017-01-30T00:18:45.265Z,1011.6
2017-01-30T00:21:18.099Z,1011.6
2017-01-30T00:23:51.317Z,1011.6
2017-01-30T00:26:23.712Z,1011.5
2017-01-30T00:28:56.109Z,1011.5
2017-01-30T00:31:28.479Z,1011.5
2017-01-30T00:34:01.303Z,1011.5
2017-01-30T00:36:33.702Z,1011.5
2017-01-30T00:39:06.509Z,1011.4
2017-01-30T00:41:38.895Z,1011.4
2017-01-30T00:44:11.289Z,1011.4
2017-01-30T00:46:43.682Z,1011.4
2017-01-30T00:49:16.932Z,1011.3
2017-01-30T00:51:49.325Z,1011.3
2017-01-30T00:54:21.722Z,1011.3
2017-01-30T00:56:54.747Z,1011.3
2017-01-30T00:59:27.546Z,1011.3
2017-01-30T01:02:00.374Z,1011.2
2017-01-30T01:04:33.632Z,1011.2
2017-01-30T01:07:06.454Z,1011.2
2017-01-30T01:09:38.835Z,1011.2
2017-01-30T01:12:12.090Z,1011.2
2017-01-30T01:14:44.477Z,1011.2
2017-01-30T01:17:17.299Z,1011.2
2017-01-30T01:19:49.684Z,1011.1
2017-01-30T01:22:22.511Z,1011.1
2017-01-30T01:24:54.922Z,1011.1
2017-01-30T01:27:27.302Z,1011.1
2017-01-30T01:29:59.694Z,1011.1
2017-01-30T01:32:32.074Z,1011.1
2017-01-30T01:35:05.729Z,1011.1
2017-01-30T01:37:38.523Z,1011
2017-01-30T01:40:10.936Z,1011
2017-01-30T01:42:43.750Z,1011
2017-01-30T01:45:16.146Z,1011
2017-01-30T01:47:48.537Z,1011
2017-01-30T01:50:21.366Z,1011
2017-01-30T01:52:53.782Z,1010.9
2017-01-30T01:55:26.177Z,1010.9
2017-01-30T01:57:58.562Z,1010.9
2017-01-30T02:00:30.949Z,1010.9
2017-01-30T02:03:03.337Z,1010.8
2017-01-30T02:05:36.170Z,1010.8
2017-01-30T02:08:08.592Z,1010.8
2017-01-30T02:10:40.969Z,1010.8
2017-01-30T02:13:13.348Z,1010.8
2017-01-30T02:15:45.739Z,1010.7
2017-01-30T02:18:18.120Z,1010.7
2017-01-30T02:20:50.520Z,1010.7
2017-01-30T02:23:22.936Z,1010.7
2017-01-30T02:25:55.326Z,1010.7
2017-01-30T02:28:27.713Z,1010.7
2017-01-30T02:31:00.086Z,1010.6
2017-01-30T02:33:32.921Z,1010.6
2017-01-30T02:36:05.727Z,1010.6
2017-01-30T02:38:38.112Z,1010.6
2017-01-30T02:41:10.525Z,1010.6
2017-01-30T02:43:42.923Z,1010.6
2017-01-30T02:46:15.309Z,1010.5
2017-01-30T02:48:47.699Z,1010.5
2017-01-30T02:51:20.534Z,1010.5
2017-01-30T02:53:52.911Z,1010.5
2017-01-30T02:56:25.309Z,1010.5
2017-01-30T02:58:57.713Z,1010.4
2017-01-30T03:01:30.099Z,1010.4
2017-01-30T03:04:03.332Z,1010.4
2017-01-30T03:06:36.138Z,1010.4
2017-01-30T03:09:08.536Z,1010.4
2017-01-30T03:11:40.934Z,1010.4
2017-01-30T03:14:13.340Z,1010.3
2017-01-30T03:16:45.725Z,1010.3
2017-01-30T03:19:18.118Z,1010.3
2017-01-30T03:21:50.498Z,1010.3
2017-01-30T03:24:23.325Z,1010.3
2017-01-30T03:26:55.723Z,1010.2
2017-01-30T03:29:28.128Z,1010.2
2017-01-30T03:32:00.551Z,1010.2
2017-01-30T03:34:32.973Z,1010.2
2017-01-30T03:37:05.791Z,1010.2
2017-01-30T03:39:38.168Z,1010.2
2017-01-30T03:42:10.575Z,1010.2
2017-01-30T03:44:42.964Z,1010.2
2017-01-30T03:47:15.785Z,1010.2
2017-01-30T03:49:48.597Z,1010.1
2017-01-30T03:52:20.999Z,1010.1
2017-01-30T03:54:53.379Z,1010.1
2017-01-30T03:57:25.760Z,1010.1
2017-01-30T03:59:58.157Z,1010.1
2017-01-30T04:02:30.980Z,1010.1
2017-01-30T04:05:03.380Z,1010.1
2017-01-30T04:07:36.637Z,1010.1
2017-01-30T04:10:09.023Z,1010.1
2017-01-30T04:12:41.864Z,1010
2017-01-30T04:15:14.253Z,1010
2017-01-30T04:17:46.635Z,1010
2017-01-30T04:20:19.431Z,1010
2017-01-30T04:22:51.826Z,1010
2017-01-30T04:25:24.839Z,1009.9
2017-01-30T04:27:57.238Z,1009.9
2017-01-30T04:30:30.055Z,1009.9
2017-01-30T04:33:02.446Z,1009.9
2017-01-30T04:35:34.843Z,1009.8
2017-01-30T04:38:07.667Z,1009.8
2017-01-30T04:40:40.058Z,1009.8
2017-01-30T04:43:12.438Z,1009.8
2017-01-30T04:45:44.834Z,1009.7
2017-01-30T04:48:17.646Z,1009.7
2017-01-30T04:50:50.487Z,1009.7
2017-01-30T04:53:22.892Z,1009.6
2017-01-30T04:55:55.278Z,1009.6
2017-01-30T04:58:28.131Z,1009.5
2017-01-30T05:01:00.963Z,1009.5
2017-01-30T05:03:33.805Z,1009.5
2017-01-30T05:06:06.198Z,1009.4
2017-01-30T05:08:38.577Z,1009.4
2017-01-30T05:11:10.962Z,1009.4
2017-01-30T05:13:43.774Z,1009.3
2017-01-30T05:16:16.187Z,1009.3
2017-01-30T05:18:48.588Z,1009.3
2017-01-30T05:21:20.986Z,1009.2
2017-01-30T05:23:53.358Z,1009.2
2017-01-30T05:26:26.176Z,1009.2
2017-01-30T05:28:58.551Z,1009.2
2017-01-30T05:31:30.959Z,1009.2
2017-01-30T05:34:03.780Z,1009.2
2017-01-30T05:36:36.996Z,1009.2
2017-01-30T05:39:09.395Z,1009.1
2017-01-30T05:41:42.625Z,1009.1
2017-01-30T05:44:15.028Z,1009.1
2017-01-30T05:46:47.409Z,1009.1
2017-01-30T05:49:19.816Z,1009.1
2017-01-30T05:51:52.203Z,1009.1
2017-01-30T05:54:24.607Z,1009.1
2017-01-30T05:56:56.997Z,1009.1
2017-01-30T05:59:29.365Z,1009.1
2017-01-30T06:02:01.750Z,1009.1
2017-01-30T06:04:34.617Z,1009.1
2017-01-30T06:07:07.046Z,1009
2017-01-30T06:09:39.420Z,1009
2017-01-30T06:12:12.283Z,1009
2017-01-30T06:14:44.689Z,1009
2017-01-30T06:17:17.080Z,1009
2017-01-30T06:19:49.469Z,1009
2017-01-30T06:22:21.859Z,1009
2017-01-30T06:24:54.264Z,1009
2017-01-30T06:27:27.136Z,1008.9
2017-01-30T06:29:59.585Z,1008.9
2017-01-30T06:32:32.404Z,1008.9
2017-01-30T06:35:04.814Z,1008.9
2017-01-30T06:37:38.061Z,1008.9
2017-01-30T06:40:11.324Z,1008.8
2017-01-30T06:42:43.733Z,1008.8
2017-01-30T06:45:16.128Z,1008.8
2017-01-30T06:47:48.946Z,1008.8
2017-01-30T06:50:22.231Z,1008.8
2017-01-30T06:52:54.618Z,1008.7
2017-01-30T06:55:27.442Z,1008.7
2017-01-30T06:57:59.851Z,1008.7
2017-01-30T07:00:32.236Z,1008.6
2017-01-30T07:03:04.633Z,1008.6
2017-01-30T07:05:37.898Z,1008.6
2017-01-30T07:08:10.292Z,1008.5
2017-01-30T07:10:42.701Z,1008.5
2017-01-30T07:13:15.084Z,1008.4
2017-01-30T07:15:47.465Z,1008.4
2017-01-30T07:18:20.285Z,1008.4
2017-01-30T07:20:52.671Z,1008.3
2017-01-30T07:23:25.072Z,1008.3
2017-01-30T07:25:57.446Z,1008.3
2017-01-30T07:28:29.828Z,1008.2
2017-01-30T07:31:02.220Z,1008.2
2017-01-30T07:33:35.067Z,1008.2
2017-01-30T07:36:07.885Z,1008.1
2017-01-30T07:38:40.712Z,1008.1
2017-01-30T07:41:13.103Z,1008.1
2017-01-30T07:43:46.344Z,1008
2017-01-30T07:46:20.015Z,1008
2017-01-30T07:48:53.676Z,1008
2017-01-30T07:51:26.691Z,1007.9
2017-01-30T07:53:59.101Z,1007.9
2017-01-30T07:56:31.494Z,1007.9
2017-01-30T07:59:03.940Z,1007.9
2017-01-30T08:01:36.333Z,1007.8
2017-01-30T08:04:08.727Z,1007.8
2017-01-30T08:06:41.110Z,1007.8
2017-01-30T08:09:13.498Z,1007.8
2017-01-30T08:11:45.883Z,1007.7
2017-01-30T08:14:18.290Z,1007.7
2017-01-30T08:16:50.666Z,1007.7
2017-01-30T08:19:23.064Z,1007.7
2017-01-30T08:21:55.451Z,1007.6
2017-01-30T08:24:28.283Z,1007.6
2017-01-30T08:27:00.662Z,1007.6
2017-01-30T08:29:33.070Z,1007.5
2017-01-30T08:32:05.453Z,1007.5
2017-01-30T08:34:37.846Z,1007.5
2017-01-30T08:37:10.678Z,1007.5
2017-01-30T08:39:43.930Z,1007.4
2017-01-30T08:42:16.332Z,1007.4
2017-01-30T08:44:49.598Z,1007.4
2017-01-30T08:47:22.008Z,1007.4
2017-01-30T08:49:54.392Z,1007.4
2017-01-30T08:52:27.491Z,1007.3
2017-01-30T08:54:59.865Z,1007.3
2017-01-30T08:57:32.245Z,1007.3
2017-01-30T09:00:04.647Z,1007.2
2017-01-30T09:02:37.245Z,1007.2
2017-01-30T09:05:10.522Z,1007.2
2017-01-30T09:07:42.909Z,1007.1
2017-01-30T09:10:15.304Z,1007.1
2017-01-30T09:12:47.705Z,1007.1
2017-01-30T09:15:20.527Z,1007
2017-01-30T09:17:52.914Z,1007
2017-01-30T09:20:25.709Z,1007
2017-01-30T09:22:58.532Z,1007
2017-01-30T09:25:30.936Z,1006.9
2017-01-30T09:28:03.339Z,1006.9
2017-01-30T09:30:36.151Z,1006.9
2017-01-30T09:33:08.997Z,1006.9
2017-01-30T09:35:41.386Z,1006.8
2017-01-30T09:38:13.805Z,1006.8
2017-01-30T09:40:46.200Z,1006.8
2017-01-30T09:43:18.602Z,1006.8
2017-01-30T09:45:51.866Z,1006.8
2017-01-30T09:48:24.257Z,1006.7
2017-01-30T09:50:56.646Z,1006.7
2017-01-30T09:53:29.035Z,1006.7
2017-01-30T09:56:01.859Z,1006.7
2017-01-30T09:58:34.241Z,1006.6
2017-01-30T10:01:06.636Z,1006.6
2017-01-30T10:03:39.045Z,1006.6
2017-01-30T10:06:11.444Z,1006.6
2017-01-30T10:08:44.257Z,1006.6
2017-01-30T10:11:16.645Z,1006.6
2017-01-30T10:13:49.889Z,1006.5
2017-01-30T10:16:22.725Z,1006.5
2017-01-30T10:18:55.128Z,1006.5
2017-01-30T10:21:27.525Z,1006.5
2017-01-30T10:24:00.372Z,1006.5
2017-01-30T10:26:32.758Z,1006.5
2017-01-30T10:29:05.151Z,1006.4
2017-01-30T10:31:37.560Z,1006.4
2017-01-30T10:34:09.941Z,1006.4
2017-01-30T10:36:42.760Z,1006.3
2017-01-30T10:39:15.150Z,1006.3
2017-01-30T10:41:48.413Z,1006.3
2017-01-30T10:44:20.813Z,1006.2
2017-01-30T10:46:54.053Z,1006.2
2017-01-30T10:49:26.463Z,1006.1
2017-01-30T10:51:58.831Z,1006.1
2017-01-30T10:54:31.230Z,1006.1
2017-01-30T10:57:04.072Z,1006
2017-01-30T10:59:36.484Z,1006
2017-01-30T11:02:08.864Z,1006
2017-01-30T11:04:41.269Z,1005.9
2017-01-30T11:07:13.672Z,1005.9
2017-01-30T11:09:46.054Z,1005.8
2017-01-30T11:12:19.290Z,1005.8
2017-01-30T11:14:51.667Z,1005.8
2017-01-30T11:17:24.075Z,1005.7
2017-01-30T11:19:56.453Z,1005.7
2017-01-30T11:22:28.872Z,1005.7
2017-01-30T11:25:01.674Z,1005.6
2017-01-30T11:27:34.057Z,1005.6
2017-01-30T11:30:06.432Z,1005.6
2017-01-30T11:32:38.816Z,1005.5
2017-01-30T11:35:11.219Z,1005.5
2017-01-30T11:37:43.607Z,1005.5
2017-01-30T11:40:15.989Z,1005.4
2017-01-30T11:42:48.384Z,1005.4
2017-01-30T11:45:20.782Z,1005.4
2017-01-30T11:47:53.173Z,1005.3
2017-01-30T11:50:25.558Z,1005.3
2017-01-30T11:52:57.959Z,1005.3
2017-01-30T11:55:30.354Z,1005.2
2017-01-30T11:58:02.773Z,1005.2
2017-01-30T12:00:35.586Z,1005.2
2017-01-30T12:03:08.428Z,1005.1
2017-01-30T12:05:40.814Z,1005.1
2017-01-30T12:08:13.218Z,1005
2017-01-30T12:10:45.596Z,1005
2017-01-30T12:13:17.992Z,1005
2017-01-30T12:15:51.229Z,1004.9
2017-01-30T12:18:24.050Z,1004.9
2017-01-30T12:20:56.447Z,1004.9
2017-01-30T12:23:28.837Z,1004.8
2017-01-30T12:26:01.665Z,1004.8
2017-01-30T12:28:34.042Z,1004.8
2017-01-30T12:31:06.861Z,1004.7
2017-01-30T12:33:39.262Z,1004.7
2017-01-30T12:36:11.659Z,1004.6
2017-01-30T12:38:44.058Z,1004.6
2017-01-30T12:41:16.467Z,1004.6
2017-01-30T12:43:48.869Z,1004.5
2017-01-30T12:46:21.704Z,1004.5
2017-01-30T12:48:54.085Z,1004.5
2017-01-30T12:51:26.487Z,1004.4
2017-01-30T12:53:58.876Z,1004.4
2017-01-30T12:56:31.285Z,1004.4
2017-01-30T12:59:04.106Z,1004.3
2017-01-30T13:01:36.498Z,1004.3
2017-01-30T13:04:08.872Z,1004.3
2017-01-30T13:06:41.281Z,1004.2
2017-01-30T13:09:14.100Z,1004.2
2017-01-30T13:11:46.497Z,1004.2
2017-01-30T13:14:18.893Z,1004.1
2017-01-30T13:16:51.717Z,1004.1
2017-01-30T13:19:24.130Z,1004.1
2017-01-30T13:21:57.388Z,1004
2017-01-30T13:24:29.787Z,1004
2017-01-30T13:27:02.610Z,1004
2017-01-30T13:29:35.475Z,1003.9
2017-01-30T13:32:07.894Z,1003.9
2017-01-30T13:34:40.293Z,1003.9
2017-01-30T13:37:12.719Z,1003.8
2017-01-30T13:39:45.127Z,1003.8
2017-01-30T13:42:17.946Z,1003.8
2017-01-30T13:44:50.437Z,1003.8
2017-01-30T13:47:22.930Z,1003.7
2017-01-30T13:49:55.805Z,1003.7
2017-01-30T13:52:28.302Z,1003.7
2017-01-30T13:55:00.712Z,1003.7
2017-01-30T13:57:34.536Z,1003.6
2017-01-30T14:00:07.782Z,1003.6
2017-01-30T14:02:40.162Z,1003.6
2017-01-30T14:05:12.564Z,1003.6
2017-01-30T14:07:44.958Z,1003.6
2017-01-30T14:10:17.980Z,1003.6
2017-01-30T14:12:50.807Z,1003.5
2017-01-30T14:15:23.210Z,1003.5
2017-01-30T14:17:55.611Z,1003.5
2017-01-30T14:20:28.017Z,1003.5
2017-01-30T14:23:00.589Z,1003.5
2017-01-30T14:25:33.435Z,1003.5
2017-01-30T14:28:05.836Z,1003.4
2017-01-30T14:30:38.241Z,1003.4
2017-01-30T14:33:10.614Z,1003.4
2017-01-30T14:35:43.430Z,1003.4
2017-01-30T14:38:15.827Z,1003.4
2017-01-30T14:40:48.227Z,1003.4
2017-01-30T14:43:20.627Z,1003.3
2017-01-30T14:45:53.881Z,1003.3
2017-01-30T14:48:26.272Z,1003.3
2017-01-30T14:50:58.658Z,1003.3
2017-01-30T14:53:31.459Z,1003.3
2017-01-30T14:56:04.275Z,1003.3
2017-01-30T14:58:37.084Z,1003.3
2017-01-30T15:01:09.471Z,1003.3
2017-01-30T15:03:41.865Z,1003.3
2017-01-30T15:06:14.266Z,1003.2
2017-01-30T15:08:47.085Z,1003.2
2017-01-30T15:11:19.464Z,1003.2
2017-01-30T15:13:51.871Z,1003.2
2017-01-30T15:16:24.257Z,1003.2
2017-01-30T15:18:56.671Z,1003.2
2017-01-30T15:21:29.064Z,1003.2
2017-01-30T15:24:01.441Z,1003.1
2017-01-30T15:26:34.852Z,1003.1
2017-01-30T15:29:07.239Z,1003.1
2017-01-30T15:31:39.653Z,1003.1
2017-01-30T15:34:12.483Z,1003.1
2017-01-30T15:36:45.291Z,1003.1
2017-01-30T15:39:18.516Z,1003.1
2017-01-30T15:41:51.535Z,1003.1
2017-01-30T15:44:24.358Z,1003.1
2017-01-30T15:46:56.769Z,1003
2017-01-30T15:49:29.155Z,1003
2017-01-30T15:52:01.541Z,1003
2017-01-30T15:54:34.389Z,1003
2017-01-30T15:57:06.769Z,1003
2017-01-30T15:59:39.157Z,1003
2017-01-30T16:02:11.549Z,1003
2017-01-30T16:04:43.969Z,1003
2017-01-30T16:07:16.377Z,1002.9
2017-01-30T16:09:48.763Z,1002.9
2017-01-30T16:12:21.585Z,1002.9
2017-01-30T16:14:53.970Z,1002.9
2017-01-30T16:17:26.828Z,1002.9
2017-01-30T16:19:59.230Z,1002.9
2017-01-30T16:22:31.635Z,1002.9
2017-01-30T16:25:04.034Z,1002.9
2017-01-30T16:27:36.851Z,1002.9
2017-01-30T16:30:09.238Z,1002.9
2017-01-30T16:32:41.744Z,1002.8
2017-01-30T16:35:14.661Z,1002.8
2017-01-30T16:37:47.040Z,1002.8
2017-01-30T16:40:19.849Z,1002.8
2017-01-30T16:42:53.109Z,1002.8
2017-01-30T16:45:26.355Z,1002.8
2017-01-30T16:47:58.742Z,1002.8
2017-01-30T16:50:31.134Z,1002.8
2017-01-30T16:53:03.948Z,1002.8
2017-01-30T16:55:36.355Z,1002.8
2017-01-30T16:58:08.738Z,1002.8
2017-01-30T17:00:41.121Z,1002.8
2017-01-30T17:03:13.973Z,1002.8
2017-01-30T17:05:46.998Z,1002.8
2017-01-30T17:08:19.385Z,1002.8
2017-01-30T17:10:52.192Z,1002.8
2017-01-30T17:13:25.005Z,1002.8
2017-01-30T17:15:57.390Z,1002.8
2017-01-30T17:18:30.216Z,1002.8
2017-01-30T17:21:02.633Z,1002.8
2017-01-30T17:23:35.014Z,1002.8
2017-01-30T17:26:07.426Z,1002.8
2017-01-30T17:28:39.809Z,1002.8
2017-01-30T17:31:12.640Z,1002.8
2017-01-30T17:33:45.036Z,1002.8
2017-01-30T17:36:18.279Z,1002.8
2017-01-30T17:38:50.655Z,1002.8
2017-01-30T17:41:23.042Z,1002.8
2017-01-30T17:43:55.416Z,1002.8
2017-01-30T17:46:27.813Z,1002.8
2017-01-30T17:49:00.192Z,1002.8
2017-01-30T17:51:33.036Z,1002.8
2017-01-30T17:54:05.420Z,1002.8
2017-01-30T17:56:38.258Z,1002.8
2017-01-30T17:59:10.635Z,1002.8
2017-01-30T18:01:43.049Z,1002.8
2017-01-30T18:04:16.719Z,1002.8
2017-01-30T18:06:49.105Z,1002.8
2017-01-30T18:09:21.925Z,1002.8
2017-01-30T18:11:54.316Z,1002.9
2017-01-30T18:14:27.114Z,1002.9
2017-01-30T18:16:59.524Z,1002.9
2017-01-30T18:19:31.929Z,1002.9
2017-01-30T18:22:04.348Z,1002.9
2017-01-30T18:24:36.744Z,1002.9
2017-01-30T18:27:09.139Z,1002.9
2017-01-30T18:29:41.960Z,1002.9
2017-01-30T18:32:14.347Z,1002.9
2017-01-30T18:34:46.724Z,1002.9
2017-01-30T18:37:19.129Z,1002.9
2017-01-30T18:39:51.730Z,1003
2017-01-30T18:42:24.559Z,1003
2017-01-30T18:44:57.385Z,1003
2017-01-30T18:47:29.768Z,1003
2017-01-30T18:50:02.589Z,1003
2017-01-30T18:52:35.406Z,1003
2017-01-30T18:55:07.793Z,1003
2017-01-30T18:57:40.221Z,1003
2017-01-30T19:00:13.875Z,1003
2017-01-30T19:02:46.691Z,1003
2017-01-30T19:05:19.499Z,1003
2017-01-30T19:07:52.314Z,1003
2017-01-30T19:10:25.137Z,1003.1
2017-01-30T19:12:57.930Z,1003.1
2017-01-30T19:15:30.737Z,1003.1
2017-01-30T19:18:03.172Z,1003.1
2017-01-30T19:20:35.986Z,1003.1
2017-01-30T19:23:08.379Z,1003.1
2017-01-30T19:25:40.756Z,1003.1
2017-01-30T19:28:13.162Z,1003.1
2017-01-30T19:30:45.534Z,1003.1
2017-01-30T19:33:17.931Z,1003
2017-01-30T19:35:50.319Z,1003
2017-01-30T19:38:22.724Z,1003
2017-01-30T19:40:55.112Z,1003
2017-01-30T19:43:27.504Z,1003
2017-01-30T19:46:00.312Z,1003
2017-01-30T19:48:32.710Z,1003
2017-01-30T19:51:05.311Z,1003
2017-01-30T19:53:38.119Z,1003
2017-01-30T19:56:10.512Z,1003
2017-01-30T19:58:43.337Z,1003
2017-01-30T20:01:16.163Z,1003
2017-01-30T20:03:48.571Z,1003
2017-01-30T20:06:20.963Z,1003
2017-01-30T20:08:53.391Z,1003
2017-01-30T20:11:26.198Z,1003
2017-01-30T20:13:58.585Z,1003
2017-01-30T20:16:32.019Z,1003
2017-01-30T20:19:04.400Z,1003
2017-01-30T20:21:37.217Z,1003
2017-01-30T20:24:09.611Z,1003.1
2017-01-30T20:26:42.022Z,1003.1
2017-01-30T20:29:14.824Z,1003.1
2017-01-30T20:31:47.217Z,1003.1
2017-01-30T20:34:21.072Z,1003.1
2017-01-30T20:36:54.719Z,1003.1
2017-01-30T20:39:27.543Z,1003.1
2017-01-30T20:41:59.927Z,1003.1
2017-01-30T20:44:32.742Z,1003.1
2017-01-30T20:47:05.136Z,1003.1
2017-01-30T20:49:37.954Z,1003.1
2017-01-30T20:52:10.743Z,1003.1
2017-01-30T20:54:43.148Z,1003.1
2017-01-30T20:57:15.534Z,1003.1
2017-01-30T20:59:48.352Z,1003.1
2017-01-30T21:02:21.165Z,1003.1
2017-01-30T21:04:53.543Z,1003.1
2017-01-30T21:07:25.921Z,1003.1
2017-01-30T21:09:58.307Z,1003.1
2017-01-30T21:12:30.746Z,1003.1
2017-01-30T21:15:03.143Z,1003.1
2017-01-30T21:17:35.536Z,1003.1
2017-01-30T21:20:07.919Z,1003.1
2017-01-30T21:22:40.320Z,1003.1
2017-01-30T21:25:12.729Z,1003.1
2017-01-30T21:27:45.107Z,1003.1
2017-01-30T21:30:17.951Z,1003.1
2017-01-30T21:32:51.173Z,1003.1
2017-01-30T21:35:23.986Z,1003.2
2017-01-30T21:37:56.787Z,1003.2
2017-01-30T21:40:29.196Z,1003.2
2017-01-30T21:43:02.006Z,1003.2
2017-01-30T21:45:34.823Z,1003.2
2017-01-30T21:48:07.202Z,1003.2
2017-01-30T21:50:40.011Z,1003.2
2017-01-30T21:53:12.397Z,1003.2
2017-01-30T21:55:44.999Z,1003.2
2017-01-30T21:58:17.378Z,1003.2
2017-01-30T22:00:50.197Z,1003.2
2017-01-30T22:03:23.000Z,1003.2
2017-01-30T22:05:55.408Z,1003.2
2017-01-30T22:08:27.798Z,1003.3
2017-01-30T22:11:01.038Z,1003.3
2017-01-30T22:13:33.424Z,1003.3
2017-01-30T22:16:05.811Z,1003.3
2017-01-30T22:18:38.198Z,1003.3
2017-01-30T22:21:11.200Z,1003.3
2017-01-30T22:23:43.600Z,1003.3
2017-01-30T22:26:16.015Z,1003.3
2017-01-30T22:28:48.401Z,1003.3
2017-01-30T22:31:20.807Z,1003.3
2017-01-30T22:33:53.618Z,1003.3
2017-01-30T22:36:26.432Z,1003.4
2017-01-30T22:38:58.818Z,1003.4
2017-01-30T22:41:31.204Z,1003.4
2017-01-30T22:44:03.600Z,1003.4
2017-01-30T22:46:35.986Z,1003.4
2017-01-30T22:49:08.794Z,1003.4
2017-01-30T22:51:41.623Z,1003.4
2017-01-30T22:54:14.655Z,1003.5
2017-01-30T22:56:47.053Z,1003.5
2017-01-30T22:59:19.883Z,1003.5
2017-01-30T23:01:52.706Z,1003.5
2017-01-30T23:04:25.521Z,1003.5
2017-01-30T23:06:57.917Z,1003.5
2017-01-30T23:09:30.312Z,1003.5
2017-01-30T23:12:03.111Z,1003.5
2017-01-30T23:14:35.518Z,1003.5
2017-01-30T23:17:08.320Z,1003.5
2017-01-30T23:19:40.723Z,1003.6
2017-01-30T23:22:13.133Z,1003.6
2017-01-30T23:24:45.530Z,1003.6
2017-01-30T23:27:17.936Z,1003.6
2017-01-30T23:29:50.326Z,1003.6
2017-01-30T23:32:22.725Z,1003.6
2017-01-30T23:34:55.095Z,1003.6
2017-01-30T23:37:27.504Z,1003.6
2017-01-30T23:39:59.895Z,1003.6
2017-01-30T23:42:32.310Z,1003.6
2017-01-30T23:45:04.700Z,1003.7
2017-01-30T23:47:37.096Z,1003.7
2017-01-30T23:50:09.493Z,1003.7
2017-01-30T23:52:41.886Z,1003.7
2017-01-30T23:55:14.274Z,1003.7
2017-01-30T23:57:47.305Z,1003.8
